Terminal Aerodrome Forecast
Issued by NWS

Home | Current Version | Previous Version | Text Only | Print | Product List | Glossary Off
Versions: 1 2 3 4 5 6 7 8 9 10 11 12 13 14 15 16 17

126
FTUS43 KICT 071740
TAFSLN
TAF
KSLN 071740Z 0718/0818 01013KT 1 1/2SM -SN SCT015 OVC025
      TEMPO 0718/0721 3SM -SN
     FM072100 01009KT P6SM OVC018
     FM080000 34007KT P6SM OVC035
     FM080300 30007KT P6SM SCT050=

USA.gov is the U.S. government's official web portal to all federal, state and local government web resources and services.